Time;durP1;ratioP1;P1;durP2;ratioP2;P2;SDS_P1;SDS_P2;PMS_P1;PMS_P2;Temp;Humidity;BMP_temperature;BMP_pressure;BME280_temperature;BME280_humidity;BME280_pressure;Samples;Min_cycle;Max_cycle;Signal;HPM_P1;HPM_P2
2021/12/31 00:02:23;;;;;;;25.25;12.10;;;;;;;-4.06;64.83;99630.75;5070241;28;20036;-65
2021/12/31 00:04:49;;;;;;;24.65;12.20;;;;;;;-4.11;64.53;99619.53;5070324;28;20107;-65
2021/12/31 00:07:15;;;;;;;24.15;11.60;;;;;;;-3.98;64.35;99635.78;5070729;28;20032;-65
2021/12/31 00:09:41;;;;;;;25.60;12.18;;;;;;;-3.95;64.74;99636.56;5070394;28;20040;-65
2021/12/31 00:12:09;;;;;;;25.83;11.95;;;;;;;-3.98;64.60;99636.66;5069983;28;20399;-64
2021/12/31 00:14:36;;;;;;;24.90;11.52;;;;;;;-4.01;64.65;99641.97;5070371;28;20028;-66
2021/12/31 00:17:01;;;;;;;22.92;10.75;;;;;;;-4.08;64.16;99629.94;5070704;28;20040;-65
2021/12/31 00:19:30;;;;;;;23.55;11.63;;;;;;;-4.08;64.54;99629.94;5071893;28;20024;-66
2021/12/31 00:21:57;;;;;;;24.48;11.35;;;;;;;-4.13;64.50;99637.88;5072018;28;20036;-65
2021/12/31 00:24:25;;;;;;;23.77;10.63;;;;;;;-4.14;64.66;99635.28;5074414;28;20077;-67
2021/12/31 00:26:51;;;;;;;23.25;11.63;;;;;;;-4.19;64.84;99625.78;5107760;28;20028;-65
2021/12/31 00:29:16;;;;;;;22.98;10.88;;;;;;;-4.19;64.57;99633.66;5074230;28;20032;-64
2021/12/31 00:31:41;;;;;;;19.92;10.73;;;;;;;-4.17;65.30;99631.00;5074486;28;20427;-64
2021/12/31 00:34:07;;;;;;;23.83;11.43;;;;;;;-4.19;64.87;99620.56;5074803;28;20024;-65
2021/12/31 00:36:41;;;;;;;23.02;10.88;;;;;;;-4.11;64.85;99624.75;5074717;28;20028;-64
2021/12/31 00:39:07;;;;;;;23.80;11.50;;;;;;;-4.33;64.66;99589.53;5074608;28;20481;-65
2021/12/31 00:41:32;;;;;;;24.98;11.50;;;;;;;-4.11;64.62;99615.16;5074156;28;20028;-64
2021/12/31 00:43:59;;;;;;;22.20;11.57;;;;;;;-4.10;64.76;99608.16;5073455;28;20035;-64
2021/12/31 00:46:24;;;;;;;25.33;10.98;;;;;;;-4.06;64.83;99618.53;5075081;28;20402;-66
2021/12/31 00:48:50;;;;;;;25.95;11.18;;;;;;;-4.08;64.23;99609.03;5074753;28;20051;-65
2021/12/31 00:51:15;;;;;;;22.75;10.98;;;;;;;-4.09;64.90;99605.53;5074453;28;20042;-64
2021/12/31 00:53:41;;;;;;;24.10;11.82;;;;;;;-4.09;64.87;99607.31;5074357;28;20181;-65
2021/12/31 00:56:06;;;;;;;21.20;11.00;;;;;;;-4.15;64.91;99589.13;5074854;28;20032;-66
2021/12/31 00:58:32;;;;;;;20.80;11.30;;;;;;;-4.08;65.14;99594.16;5074592;28;20443;-66
2021/12/31 01:00:57;;;;;;;21.92;9.93;;;;;;;-4.18;64.78;99577.84;5073861;28;20037;-66
2021/12/31 01:03:23;;;;;;;23.08;10.88;;;;;;;-4.12;64.39;99597.75;5074096;28;20043;-65
2021/12/31 01:05:48;;;;;;;23.70;11.00;;;;;;;-4.18;64.75;99588.31;5074555;28;20029;-65
2021/12/31 01:08:14;;;;;;;25.35;11.10;;;;;;;-4.14;65.30;99594.31;5073940;28;20029;-66
2021/12/31 01:10:39;;;;;;;23.45;11.52;;;;;;;-4.12;65.11;99589.91;5073978;28;20024;-66
2021/12/31 01:13:09;;;;;;;20.27;10.60;;;;;;;-4.15;65.50;99576.03;5073801;28;20037;-64
2021/12/31 01:15:45;;;;;;;19.02;9.55;;;;;;;-4.24;65.51;99554.47;5073498;28;20466;-65
2021/12/31 01:20:37;;;;;;;19.27;10.15;;;;;;;-4.13;65.07;99576.88;5073426;28;20111;-64
2021/12/31 01:23:05;;;;;;;23.88;11.13;;;;;;;-4.11;64.87;99582.91;5073544;28;20025;-66
2021/12/31 01:25:31;;;;;;;21.45;11.32;;;;;;;-4.08;65.14;99583.72;5073860;28;20031;-64
2021/12/31 01:27:56;;;;;;;23.38;11.55;;;;;;;-4.08;65.37;99577.63;5073366;28;20032;-65
2021/12/31 01:30:22;;;;;;;21.10;10.80;;;;;;;-4.11;65.08;99573.34;5074026;28;20029;-64
2021/12/31 01:32:48;;;;;;;26.33;12.48;;;;;;;-4.08;64.85;99577.63;5073389;28;20151;-65
2021/12/31 01:35:14;;;;;;;24.13;11.73;;;;;;;-4.09;65.43;99575.91;5073485;28;20032;-63
2021/12/31 01:37:40;;;;;;;25.77;11.07;;;;;;;-4.05;64.91;99574.94;5106545;28;20103;-66
2021/12/31 01:40:07;;;;;;;21.83;11.27;;;;;;;-4.04;64.96;99564.44;5073358;28;20028;-66
2021/12/31 01:42:33;;;;;;;21.00;10.00;;;;;;;-4.00;65.27;99570.44;5073310;28;20059;-64
2021/12/31 01:45:15;;;;;;;21.85;11.35;;;;;;;-4.00;65.13;99552.16;5073649;28;20040;-65
2021/12/31 01:48:07;;;;;;;24.58;12.02;;;;;;;-4.09;64.95;99545.38;5073349;28;20029;-66
2021/12/31 01:50:30;;;;;;;24.38;11.95;;;;;;;-4.08;64.71;99549.72;5072710;28;20045;-66
2021/12/31 01:52:57;;;;;;;25.95;11.77;;;;;;;-4.08;65.09;99547.09;5073590;28;20025;-66
2021/12/31 01:55:26;;;;;;;20.77;11.35;;;;;;;-4.11;64.96;99533.22;5073590;28;20020;-64
2021/12/31 01:57:53;;;;;;;20.52;10.10;;;;;;;-4.03;65.12;99547.00;5073080;28;20024;-67
2021/12/31 02:00:19;;;;;;;21.38;10.65;;;;;;;-4.01;64.90;99542.59;5072607;28;20359;-64
2021/12/31 02:02:46;;;;;;;21.42;10.93;;;;;;;-4.04;64.75;99533.03;5073442;28;20043;-64
2021/12/31 02:05:12;;;;;;;22.20;9.73;;;;;;;-4.01;64.72;99528.63;5073112;28;20039;-64
2021/12/31 02:07:38;;;;;;;18.85;9.57;;;;;;;-4.04;64.60;99532.22;5072526;28;20056;-65
2021/12/31 02:10:05;;;;;;;22.30;11.05;;;;;;;-4.09;64.81;99515.78;5073163;28;20411;-64
2021/12/31 02:12:32;;;;;;;19.33;10.38;;;;;;;-4.08;65.04;99527.97;5073279;28;20440;-65
2021/12/31 02:14:58;;;;;;;22.60;10.20;;;;;;;-4.07;65.60;99537.53;5072916;28;20115;-64
2021/12/31 02:17:24;;;;;;;28.63;12.45;;;;;;;-4.10;65.38;99524.50;5105180;28;20032;-65
2021/12/31 02:20:05;;;;;;;23.42;10.88;;;;;;;-4.03;65.28;99524.31;5072727;28;20493;-65
2021/12/31 02:22:33;;;;;;;20.90;10.10;;;;;;;-4.00;64.59;99512.91;5072678;28;20090;-65
2021/12/31 02:25:00;;;;;;;25.60;11.18;;;;;;;-4.07;65.25;99504.38;5070731;28;20123;-66
2021/12/31 02:27:27;;;;;;;24.02;11.35;;;;;;;-4.02;65.41;99504.25;5070847;28;20075;-65
2021/12/31 02:29:52;;;;;;;23.95;11.52;;;;;;;-4.01;65.34;99511.19;5070378;28;20028;-64
2021/12/31 02:32:19;;;;;;;23.08;11.95;;;;;;;-3.97;65.45;99512.84;5071417;28;20046;-66
2021/12/31 02:34:46;;;;;;;25.17;11.32;;;;;;;-3.92;65.20;99512.72;5070848;28;20024;-64
2021/12/31 02:37:11;;;;;;;22.40;11.45;;;;;;;-4.10;65.14;99480.91;5070456;28;20055;-64
2021/12/31 02:39:39;;;;;;;22.17;10.60;;;;;;;-3.87;65.45;99507.34;5071145;28;20056;-64
2021/12/31 02:42:08;;;;;;;24.38;11.45;;;;;;;-3.86;65.28;99504.72;5071200;28;20107;-64
2021/12/31 02:44:35;;;;;;;26.15;11.32;;;;;;;-3.86;64.94;99496.84;5069966;28;20033;-65
2021/12/31 02:47:03;;;;;;;20.88;10.88;;;;;;;-3.92;64.55;99495.25;5070014;28;20474;-64
2021/12/31 02:49:34;;;;;;;19.70;10.32;;;;;;;-3.90;65.08;99493.47;5070367;28;20044;-65
2021/12/31 02:52:02;;;;;;;23.83;11.45;;;;;;;-3.94;65.17;99481.38;5070884;28;20474;-64
2021/12/31 02:54:29;;;;;;;27.33;12.68;;;;;;;-3.93;64.86;99474.41;5071642;28;20079;-64
2021/12/31 02:56:55;;;;;;;21.95;11.48;;;;;;;-3.95;65.09;99469.19;5071125;28;20021;-64
2021/12/31 02:59:21;;;;;;;22.88;11.15;;;;;;;-3.91;65.33;99476.06;5070027;28;20020;-64
2021/12/31 03:01:47;;;;;;;22.77;11.73;;;;;;;-3.90;64.81;99471.69;5071288;28;20085;-65
2021/12/31 03:04:15;;;;;;;23.92;12.13;;;;;;;-3.92;64.89;99457.81;5070758;28;20024;-64
2021/12/31 03:06:43;;;;;;;27.10;11.50;;;;;;;-3.91;64.73;99464.75;5070987;28;20077;-64
2021/12/31 03:09:11;;;;;;;23.35;11.05;;;;;;;-3.92;64.65;99463.88;5071143;28;20024;-64
2021/12/31 03:11:38;;;;;;;23.95;11.38;;;;;;;-4.11;64.92;99436.50;5071539;28;20385;-64
2021/12/31 03:14:06;;;;;;;25.23;12.13;;;;;;;-4.04;65.55;99459.81;5071294;28;20044;-63
2021/12/31 03:16:32;;;;;;;24.75;11.90;;;;;;;-3.94;65.29;99470.06;5070815;28;20077;-64
2021/12/31 03:18:58;;;;;;;23.23;12.00;;;;;;;-3.97;65.81;99465.75;5071844;28;20040;-64
2021/12/31 03:21:23;;;;;;;25.58;11.90;;;;;;;-3.96;65.77;99467.47;5071096;28;20037;-65
2021/12/31 03:23:52;;;;;;;24.10;11.70;;;;;;;-3.91;65.24;99462.97;5071345;28;20032;-64
2021/12/31 03:26:20;;;;;;;28.08;11.70;;;;;;;-3.90;65.00;99456.84;5071659;28;20036;-64
2021/12/31 03:28:45;;;;;;;26.92;12.05;;;;;;;-3.84;65.23;99452.38;5070939;28;20174;-64
2021/12/31 03:31:11;;;;;;;22.63;11.07;;;;;;;-3.87;65.13;99453.28;5070713;28;20116;-63
2021/12/31 03:33:37;;;;;;;25.88;12.50;;;;;;;-3.85;65.64;99453.25;5070794;28;20502;-64
2021/12/31 03:36:02;;;;;;;26.88;12.10;;;;;;;-3.81;65.26;99440.03;5070047;28;20085;-64
2021/12/31 03:38:28;;;;;;;27.73;12.75;;;;;;;-3.79;65.61;99419.91;5070424;28;20107;-64
2021/12/31 03:40:53;;;;;;;25.42;12.63;;;;;;;-3.76;65.29;99422.44;5070725;28;20033;-64
2021/12/31 03:43:19;;;;;;;26.95;13.02;;;;;;;-3.77;65.15;99425.97;5069691;28;20082;-64
2021/12/31 03:45:46;;;;;;;25.63;12.38;;;;;;;-3.77;65.31;99417.28;5068809;28;20032;-64
2021/12/31 03:48:12;;;;;;;27.95;12.20;;;;;;;-3.78;65.35;99418.19;5071154;28;20565;-64
2021/12/31 03:50:38;;;;;;;25.15;12.70;;;;;;;-3.79;66.07;99421.69;5071449;28;20111;-65
2021/12/31 03:53:04;;;;;;;23.27;11.52;;;;;;;-3.76;66.16;99426.84;5071390;28;20122;-64
2021/12/31 03:55:29;;;;;;;28.02;12.18;;;;;;;-3.76;65.93;99424.22;5071325;28;20021;-63
2021/12/31 03:57:55;;;;;;;25.20;12.23;;;;;;;-3.74;65.83;99417.19;5071436;28;20199;-64
2021/12/31 04:00:21;;;;;;;26.80;11.63;;;;;;;-3.79;66.00;99406.00;5071013;28;20074;-66
2021/12/31 04:02:46;;;;;;;25.23;12.38;;;;;;;-3.77;65.58;99404.19;5070612;28;20084;-65
2021/12/31 04:05:12;;;;;;;27.98;12.38;;;;;;;-3.90;66.57;99399.28;5070960;28;20099;-64
2021/12/31 04:07:37;;;;;;;25.65;12.15;;;;;;;-3.87;66.61;99398.38;5071500;28;20032;-64
2021/12/31 04:10:04;;;;;;;23.98;12.00;;;;;;;-3.94;66.73;99389.81;5070925;28;20032;-65
2021/12/31 04:12:29;;;;;;;25.67;12.18;;;;;;;-3.86;66.59;99383.50;5069422;28;20118;-63
2021/12/31 04:14:55;;;;;;;25.67;11.98;;;;;;;-3.81;66.05;99386.88;5070770;28;20035;-63
2021/12/31 04:17:20;;;;;;;26.25;11.65;;;;;;;-4.00;66.83;99361.25;5071158;28;20116;-64
2021/12/31 04:19:51;;;;;;;23.55;11.52;;;;;;;-3.83;66.27;99388.69;5070872;28;20527;-64
2021/12/31 04:22:17;;;;;;;28.33;12.35;;;;;;;-3.89;67.12;99385.31;5070567;28;20470;-64
2021/12/31 04:27:08;;;;;;;24.55;11.85;;;;;;;-3.83;65.99;99392.13;5071280;28;20032;-64
2021/12/31 04:29:34;;;;;;;23.63;11.57;;;;;;;-3.83;65.80;99399.16;5070759;28;20401;-64
2021/12/31 04:32:00;;;;;;;24.90;12.23;;;;;;;-3.91;66.38;99396.75;5070410;28;20056;-65
2021/12/31 04:34:27;;;;;;;26.90;12.32;;;;;;;-4.07;66.58;99362.31;5070652;28;20032;-65
2021/12/31 04:36:53;;;;;;;25.35;12.18;;;;;;;-3.86;65.96;99407.06;5071143;28;20182;-64
2021/12/31 04:39:19;;;;;;;26.45;12.85;;;;;;;-3.85;66.26;99414.03;5070740;28;20029;-64
2021/12/31 04:41:44;;;;;;;30.02;13.45;;;;;;;-3.83;66.73;99415.69;5102760;28;20040;-65
2021/12/31 04:44:10;;;;;;;26.40;12.43;;;;;;;-3.78;66.23;99407.72;5070517;28;20035;-64
2021/12/31 04:46:35;;;;;;;25.88;12.65;;;;;;;-3.80;66.39;99401.66;5071060;28;20028;-64
2021/12/31 04:49:01;;;;;;;23.88;12.68;;;;;;;-3.68;65.88;99403.91;5070485;28;20406;-64
2021/12/31 04:51:27;;;;;;;25.33;12.02;;;;;;;-3.71;65.63;99403.16;5070230;28;20512;-64
2021/12/31 04:53:52;;;;;;;29.95;13.10;;;;;;;-3.71;65.99;99406.63;5070350;28;20442;-64
2021/12/31 04:56:18;;;;;;;22.77;12.15;;;;;;;-3.70;65.82;99405.72;5071043;28;20032;-64
2021/12/31 04:58:43;;;;;;;25.02;12.90;;;;;;;-3.69;66.06;99402.22;5070177;28;20060;-64
2021/12/31 05:01:09;;;;;;;29.17;12.73;;;;;;;-3.67;66.30;99404.78;5069876;28;20120;-65
2021/12/31 05:03:34;;;;;;;24.23;12.00;;;;;;;-3.78;65.73;99361.47;5102910;28;20478;-65
2021/12/31 05:06:00;;;;;;;25.20;13.13;;;;;;;-3.71;65.43;99390.94;5070367;28;20044;-64
2021/12/31 05:08:25;;;;;;;25.55;11.88;;;;;;;-3.72;65.85;99381.38;5072623;28;20443;-64
2021/12/31 05:10:51;;;;;;;23.95;11.38;;;;;;;-3.77;66.26;99375.41;5073884;28;20068;-65
2021/12/31 05:13:18;;;;;;;22.33;10.75;;;;;;;-3.71;65.59;99369.16;5073990;28;20027;-64
2021/12/31 05:15:46;;;;;;;23.48;11.68;;;;;;;-3.69;65.93;99369.97;5074022;28;20036;-65
2021/12/31 05:18:13;;;;;;;25.45;11.73;;;;;;;-3.72;66.32;99370.06;5073660;28;20474;-63
2021/12/31 05:20:39;;;;;;;26.42;10.63;;;;;;;-3.76;66.09;99356.19;5073753;28;20036;-64
2021/12/31 05:23:04;;;;;;;24.75;11.77;;;;;;;-3.73;66.05;99361.34;5074026;28;20042;-63
2021/12/31 05:25:30;;;;;;;24.23;11.00;;;;;;;-3.79;65.92;99348.44;5073539;28;20032;-63
2021/12/31 05:27:56;;;;;;;24.25;11.77;;;;;;;-3.68;65.99;99353.38;5074070;28;20488;-64
2021/12/31 05:30:21;;;;;;;24.10;11.02;;;;;;;-3.69;65.96;99344.66;5073807;28;20033;-64
2021/12/31 05:32:47;;;;;;;25.23;11.93;;;;;;;-3.74;65.98;99330.84;5073376;28;20032;-65
2021/12/31 05:35:14;;;;;;;27.80;11.65;;;;;;;-3.64;66.14;99344.53;5073319;28;20398;-64
2021/12/31 05:37:40;;;;;;;23.52;11.48;;;;;;;-3.64;65.77;99350.59;5073679;28;20073;-65
2021/12/31 05:40:06;;;;;;;23.20;11.30;;;;;;;-3.66;65.92;99339.31;5073657;28;20035;-64
2021/12/31 05:42:32;;;;;;;26.73;12.00;;;;;;;-3.55;66.42;99356.47;5073519;28;20085;-64
2021/12/31 05:44:58;;;;;;;25.42;11.57;;;;;;;-3.54;65.55;99345.94;5073690;28;20024;-64
2021/12/31 05:47:23;;;;;;;22.05;10.60;;;;;;;-3.50;66.06;99349.34;5073447;28;20082;-64
2021/12/31 05:49:49;;;;;;;23.75;11.50;;;;;;;-3.64;66.05;99321.81;5072927;28;20056;-64
2021/12/31 05:52:15;;;;;;;23.88;11.35;;;;;;;-3.46;65.25;99351.81;5073499;28;20040;-66
2021/12/31 05:54:40;;;;;;;24.13;11.20;;;;;;;-3.52;65.79;99338.06;5073423;28;20032;-65
2021/12/31 05:57:06;;;;;;;25.33;11.23;;;;;;;-3.48;65.70;99344.91;5073090;28;20024;-64
2021/12/31 05:59:31;;;;;;;22.98;11.30;;;;;;;-3.42;65.62;99343.88;5072950;28;20028;-63
2021/12/31 06:01:57;;;;;;;20.80;10.02;;;;;;;-3.45;65.86;99342.19;5073519;28;20036;-65
2021/12/31 06:04:22;;;;;;;20.63;10.93;;;;;;;-3.48;65.73;99342.28;5073302;28;20374;-66
2021/12/31 06:06:48;;;;;;;24.42;11.23;;;;;;;-3.62;65.80;99309.56;5073100;28;20032;-65
2021/12/31 06:09:13;;;;;;;23.40;10.90;;;;;;;-3.45;65.97;99336.97;5072657;28;20131;-65
2021/12/31 06:11:40;;;;;;;22.52;10.20;;;;;;;-3.43;65.77;99339.53;5073062;28;20024;-63
2021/12/31 06:14:08;;;;;;;23.70;11.38;;;;;;;-3.39;65.16;99346.38;5073472;28;20033;-64
2021/12/31 06:16:37;;;;;;;20.95;10.85;;;;;;;-3.44;65.92;99336.06;5072531;28;20086;-65
2021/12/31 06:19:05;;;;;;;21.55;11.23;;;;;;;-3.39;65.85;99344.59;5071345;28;20028;-63
2021/12/31 06:21:34;;;;;;;24.05;11.10;;;;;;;-3.33;65.46;99347.06;5072851;28;20116;-66
2021/12/31 06:24:00;;;;;;;21.50;11.05;;;;;;;-3.29;65.55;99347.78;5072913;28;20390;-64
2021/12/31 06:26:25;;;;;;;20.70;10.65;;;;;;;-3.26;65.42;99354.72;5072192;28;20036;-67
2021/12/31 06:28:51;;;;;;;20.25;10.25;;;;;;;-3.21;65.69;99348.44;5071923;28;20101;-68
2021/12/31 06:31:16;;;;;;;18.65;9.75;;;;;;;-3.18;65.14;99347.47;5072308;28;20078;-69
2021/12/31 06:33:42;;;;;;;18.35;10.07;;;;;;;-3.13;65.13;99352.56;5071262;28;20436;-64
2021/12/31 06:36:08;;;;;;;22.02;10.25;;;;;;;-3.25;64.99;99332.84;5071816;28;20125;-69
2021/12/31 06:38:33;;;;;;;19.77;9.73;;;;;;;-3.15;65.29;99347.34;5072147;28;20111;-64
2021/12/31 06:40:59;;;;;;;20.67;9.88;;;;;;;-3.15;65.24;99349.13;5072543;28;20033;-65
2021/12/31 06:43:24;;;;;;;21.70;10.30;;;;;;;-3.17;65.39;99336.09;5072507;28;20036;-64
2021/12/31 06:45:50;;;;;;;19.50;10.18;;;;;;;-3.17;65.73;99343.94;5071887;28;20028;-65
2021/12/31 06:48:15;;;;;;;20.73;9.82;;;;;;;-3.15;65.34;99333.44;5071734;28;20080;-64
2021/12/31 06:50:40;;;;;;;20.40;9.93;;;;;;;-3.13;65.11;99337.72;5072092;28;20383;-66
2021/12/31 06:53:06;;;;;;;22.38;10.32;;;;;;;-3.15;65.40;99321.16;5072439;28;20119;-66
2021/12/31 06:55:33;;;;;;;22.92;10.63;;;;;;;-3.13;64.87;99323.75;5066389;28;20052;-64
2021/12/31 06:57:59;;;;;;;20.17;10.48;;;;;;;-3.10;65.51;99321.03;5062247;28;20433;-63
2021/12/31 07:00:25;;;;;;;19.58;9.88;;;;;;;-3.24;64.85;99287.44;5060337;28;20390;-63
2021/12/31 07:02:51;;;;;;;18.52;9.38;;;;;;;-3.00;65.09;99319.84;5059828;28;20131;-63
2021/12/31 07:05:17;;;;;;;18.17;9.43;;;;;;;-3.00;65.27;99303.25;5061840;28;20464;-63
2021/12/31 07:07:42;;;;;;;16.85;9.00;;;;;;;-3.04;64.78;99303.38;5059478;28;20354;-64
2021/12/31 07:10:08;;;;;;;19.73;9.80;;;;;;;-3.06;65.45;99302.56;5061619;28;20031;-64
2021/12/31 07:12:34;;;;;;;19.27;10.00;;;;;;;-3.03;65.22;99307.69;5059121;28;20021;-64
2021/12/31 07:14:59;;;;;;;18.58;9.15;;;;;;;-3.07;65.20;99300.84;5049910;28;20140;-64
2021/12/31 07:17:28;;;;;;;19.45;9.93;;;;;;;-2.96;65.55;99303.13;5051533;28;20029;-63
2021/12/31 07:19:54;;;;;;;19.58;9.18;;;;;;;-2.94;65.35;99300.41;5051132;28;20051;-64
2021/12/31 07:22:19;;;;;;;21.63;9.90;;;;;;;-2.94;65.41;99290.81;5051187;28;20467;-64
2021/12/31 07:24:44;;;;;;;23.83;9.85;;;;;;;-2.87;64.88;99286.22;5051700;28;20036;-64
2021/12/31 07:27:10;;;;;;;21.25;10.70;;;;;;;-2.84;65.42;99280.88;5051270;28;20035;-65
2021/12/31 07:29:36;;;;;;;19.23;10.00;;;;;;;-2.78;64.78;99274.56;5051221;28;20068;-64
2021/12/31 07:32:01;;;;;;;21.85;10.60;;;;;;;-2.72;64.83;99281.34;5051511;28;20033;-64
2021/12/31 07:34:27;;;;;;;20.15;10.20;;;;;;;-2.64;64.54;99281.97;5061321;28;20039;-65
2021/12/31 07:36:52;;;;;;;24.25;10.48;;;;;;;-2.64;64.71;99282.81;5095147;28;20113;-64
2021/12/31 07:39:20;;;;;;;20.42;10.18;;;;;;;-2.64;65.07;99282.81;5071604;28;20031;-65
2021/12/31 07:41:46;;;;;;;22.48;10.35;;;;;;;-2.63;64.58;99283.69;5070962;28;20489;-62
2021/12/31 07:44:11;;;;;;;18.67;10.23;;;;;;;-2.76;64.21;99251.81;5071305;28;20032;-63
2021/12/31 07:46:37;;;;;;;21.60;10.52;;;;;;;-2.59;64.56;99272.16;5071198;28;20135;-63
2021/12/31 07:49:02;;;;;;;19.38;9.60;;;;;;;-2.57;64.63;99262.47;5057935;28;20051;-63
2021/12/31 07:51:28;;;;;;;21.30;10.55;;;;;;;-2.53;63.94;99278.94;5048608;28;20506;-64
2021/12/31 07:53:53;;;;;;;21.48;9.98;;;;;;;-2.50;64.44;99263.13;5048934;28;20158;-63
2021/12/31 07:56:19;;;;;;;20.05;10.13;;;;;;;-2.49;63.72;99265.66;5049159;28;20032;-64
2021/12/31 07:58:46;;;;;;;19.20;9.88;;;;;;;-2.62;63.91;99227.72;5049669;28;20471;-65
2021/12/31 08:01:12;;;;;;;20.67;10.40;;;;;;;-2.42;64.27;99249.72;5049144;28;20036;-64
2021/12/31 08:03:37;;;;;;;22.52;10.82;;;;;;;-2.59;64.15;99222.38;5048499;28;20021;-64
2021/12/31 08:06:03;;;;;;;18.20;9.75;;;;;;;-2.38;63.58;99244.31;5050419;28;20028;-64
2021/12/31 08:08:28;;;;;;;20.42;10.00;;;;;;;-2.35;63.85;99244.19;5050192;28;20119;-63
2021/12/31 08:10:54;;;;;;;20.83;10.65;;;;;;;-2.30;63.56;99259.75;5050636;28;20033;-64
2021/12/31 08:13:19;;;;;;;25.20;11.35;;;;;;;-2.33;63.83;99233.66;5050935;28;20394;-64
2021/12/31 08:15:45;;;;;;;21.17;10.60;;;;;;;-2.22;63.45;99236.72;5051303;28;20120;-66
2021/12/31 08:18:10;;;;;;;20.40;10.30;;;;;;;-2.21;63.97;99232.34;5051573;28;20029;-63
2021/12/31 08:20:37;;;;;;;22.65;11.13;;;;;;;-2.23;63.28;99216.66;5083045;28;20098;-64
2021/12/31 08:23:09;;;;;;;22.33;10.77;;;;;;;-2.18;63.75;99233.06;5050377;28;20025;-63
2021/12/31 08:25:36;;;;;;;21.60;11.00;;;;;;;-2.17;63.94;99224.31;5051065;28;20021;-64
2021/12/31 08:28:02;;;;;;;22.15;11.13;;;;;;;-2.18;63.48;99216.50;5051378;28;20044;-64
2021/12/31 08:30:28;;;;;;;22.40;10.70;;;;;;;-2.21;63.42;99208.75;5050862;28;20098;-62
2021/12/31 08:32:53;;;;;;;21.17;10.85;;;;;;;-2.15;63.27;99211.13;5050077;28;20060;-64
2021/12/31 08:35:19;;;;;;;24.67;10.98;;;;;;;-2.53;63.19;99155.75;5049574;28;20028;-64
2021/12/31 08:37:44;;;;;;;22.83;11.35;;;;;;;-2.23;63.38;99195.69;5051303;28;20032;-63
2021/12/31 08:40:11;;;;;;;24.13;12.45;;;;;;;-2.26;63.52;99203.66;5050514;28;20029;-63
2021/12/31 08:42:39;;;;;;;23.30;12.23;;;;;;;-2.46;63.33;99165.09;5051532;28;20365;-64
2021/12/31 08:45:05;;;;;;;21.80;11.07;;;;;;;-2.31;63.70;99200.38;5054512;28;20483;-64
2021/12/31 08:47:30;;;;;;;24.42;11.52;;;;;;;-2.26;63.45;99202.81;5054927;28;20031;-65
2021/12/31 08:49:56;;;;;;;22.13;11.13;;;;;;;-2.46;63.43;99170.34;5054134;28;20055;-65
2021/12/31 08:52:22;;;;;;;24.55;11.57;;;;;;;-2.19;63.42;99193.81;5052910;28;20033;-64
2021/12/31 08:54:47;;;;;;;28.20;12.45;;;;;;;-2.13;62.88;99187.47;5054049;28;20470;-65
2021/12/31 08:57:14;;;;;;;27.13;12.18;;;;;;;-2.17;63.25;99184.97;5054095;28;20083;-65
2021/12/31 08:59:39;;;;;;;20.23;10.90;;;;;;;-2.13;62.92;99180.44;5054103;28;20036;-65
2021/12/31 09:02:05;;;;;;;22.27;11.45;;;;;;;-2.10;62.60;99179.47;5053533;28;20045;-63
2021/12/31 09:04:30;;;;;;;25.52;12.40;;;;;;;-2.06;63.32;99175.81;5053532;28;20033;-64
2021/12/31 09:06:56;;;;;;;24.98;12.45;;;;;;;-2.15;63.15;99158.66;5053921;28;20083;-65
2021/12/31 09:09:21;;;;;;;29.77;13.93;;;;;;;-1.99;63.02;99172.03;5053606;28;20064;-63
2021/12/31 09:11:47;;;;;;;25.92;12.63;;;;;;;-1.95;62.41;99163.13;5054104;28;20431;-65
2021/12/31 09:14:12;;;;;;;24.15;13.02;;;;;;;-1.92;62.26;99168.28;5053790;28;20029;-64
2021/12/31 09:16:38;;;;;;;26.50;12.68;;;;;;;-1.95;62.03;99171.00;5053203;28;20029;-64
2021/12/31 09:19:03;;;;;;;31.55;14.27;;;;;;;-1.98;62.42;99150.13;5053697;28;20044;-64
2021/12/31 09:21:29;;;;;;;28.95;13.70;;;;;;;-1.96;62.87;99156.16;5052914;28;20083;-64
2021/12/31 09:23:54;;;;;;;26.30;12.77;;;;;;;-1.94;62.33;99162.19;5053079;28;20039;-65
2021/12/31 09:26:20;;;;;;;26.25;13.20;;;;;;;-2.00;62.67;99153.75;5053427;28;20031;-64
2021/12/31 09:28:46;;;;;;;27.48;13.05;;;;;;;-2.25;62.71;99118.00;5053696;28;20028;-65
2021/12/31 09:31:12;;;;;;;29.20;13.75;;;;;;;-2.02;62.12;99148.53;5053530;28;20025;-65
2021/12/31 09:33:38;;;;;;;30.00;14.20;;;;;;;-2.06;62.60;99152.22;5053790;28;20039;-64
2021/12/31 09:36:03;;;;;;;29.67;14.40;;;;;;;-2.08;62.84;99144.38;5053962;28;20029;-64
2021/12/31 09:38:29;;;;;;;28.00;13.95;;;;;;;-2.07;62.90;99145.25;5053554;28;20033;-65
2021/12/31 09:40:55;;;;;;;27.00;14.27;;;;;;;-2.05;62.44;99143.44;5053198;28;20045;-63
2021/12/31 09:43:20;;;;;;;29.77;14.40;;;;;;;-2.06;62.80;99131.22;5053614;28;20033;-66
2021/12/31 09:45:50;;;;;;;28.80;13.77;;;;;;;-1.98;62.73;99129.13;5053876;28;20036;-64
2021/12/31 09:48:19;;;;;;;27.55;13.40;;;;;;;-1.94;62.09;99130.72;5053299;28;20498;-65
2021/12/31 09:50:47;;;;;;;29.75;15.57;;;;;;;-1.97;62.69;99143.97;5052875;28;20340;-65
2021/12/31 09:53:14;;;;;;;30.10;14.02;;;;;;;-1.99;62.44;99137.94;5053673;28;20029;-64
2021/12/31 09:55:45;;;;;;;31.75;14.52;;;;;;;-2.20;62.74;99111.63;5053124;28;20028;-65
2021/12/31 09:58:13;;;;;;;32.15;14.90;;;;;;;-2.04;62.42;99129.41;5052967;28;20562;-65
2021/12/31 10:00:44;;;;;;;31.90;15.20;;;;;;;-2.22;62.72;99089.88;5053254;28;20037;-64
2021/12/31 10:03:10;;;;;;;32.35;15.02;;;;;;;-1.99;62.30;99132.69;5053668;28;20455;-63
2021/12/31 10:05:57;;;;;;;30.85;14.15;;;;;;;-1.94;63.25;99124.63;5053011;28;20090;-63
2021/12/31 10:08:27;;;;;;;32.70;15.38;;;;;;;-1.97;62.48;99104.63;5052609;28;20035;-65
2021/12/31 10:11:26;;;;;;;30.77;13.85;;;;;;;-2.04;62.58;99104.03;5053131;28;20061;-64
2021/12/31 10:13:51;;;;;;;31.63;15.27;;;;;;;-2.04;62.51;99119.78;5053129;28;20143;-65
2021/12/31 10:16:26;;;;;;;32.83;15.38;;;;;;;-1.98;63.08;99118.66;5053198;28;20028;-64
2021/12/31 10:19:08;;;;;;;30.38;14.68;;;;;;;-1.91;62.67;99114.00;5052850;28;20037;-63
2021/12/31 10:21:38;;;;;;;33.40;14.80;;;;;;;-1.92;62.35;99117.56;5053046;28;20036;-64
2021/12/31 10:24:26;;;;;;;31.23;15.23;;;;;;;-1.90;62.94;99111.34;5053227;28;20041;-64
2021/12/31 10:27:01;;;;;;;28.83;14.43;;;;;;;-1.94;63.04;99103.66;5052512;28;20097;-64
2021/12/31 10:29:26;;;;;;;;;;;;;;;-1.84;62.80;99106.75;5052706;28;20033;-63
2021/12/31 10:31:53;;;;;;;37.25;15.80;;;;;;;-2.00;62.47;99099.50;5052922;28;19919;-64
2021/12/31 10:34:41;;;;;;;33.75;16.05;;;;;;;-2.06;62.95;99102.38;5052813;28;20051;-64
2021/12/31 10:37:20;;;;;;;31.48;15.27;;;;;;;-2.10;63.30;99103.41;5052164;28;20124;-64
2021/12/31 10:39:55;;;;;;;42.22;16.83;;;;;;;-2.31;63.23;99066.66;5051931;28;20025;-63
2021/12/31 10:42:27;;;;;;;38.42;15.95;;;;;;;-2.16;63.41;99094.03;5052972;28;20060;-65
2021/12/31 10:44:53;;;;;;;35.67;15.85;;;;;;;-2.21;63.35;99083.69;5052218;28;20032;-65
2021/12/31 10:47:22;;;;;;;37.83;16.17;;;;;;;-2.13;63.92;99087.81;5052023;28;20025;-64
2021/12/31 10:49:59;;;;;;;33.03;16.08;;;;;;;-2.09;63.32;99081.53;5051733;28;20048;-64
2021/12/31 10:52:29;;;;;;;36.42;16.95;;;;;;;-2.12;63.46;99071.16;5051521;28;20049;-65
2021/12/31 10:55:04;;;;;;;36.22;15.60;;;;;;;-2.00;63.55;99078.50;5051884;28;20033;-66
2021/12/31 10:57:39;;;;;;;37.47;17.60;;;;;;;-2.11;63.28;99044.84;5051582;28;20052;-63
2021/12/31 11:00:07;;;;;;;38.55;17.10;;;;;;;-2.01;63.43;99066.31;5051913;28;20045;-63
2021/12/31 11:02:34;;;;;;;34.78;15.68;;;;;;;-2.07;63.55;99058.69;5051760;28;20082;-64
2021/12/31 11:05:00;;;;;;;35.13;17.17;;;;;;;-2.12;63.69;99052.78;5050889;28;20124;-63
2021/12/31 11:07:29;;;;;;;38.72;17.02;;;;;;;-2.10;64.18;99045.72;5052113;28;20117;-64
2021/12/31 11:09:57;;;;;;;37.25;17.70;;;;;;;-2.12;64.21;99051.00;5051609;28;20483;-64
2021/12/31 11:12:23;;;;;;;37.17;16.92;;;;;;;-2.20;63.48;99029.50;5051555;28;20079;-64
2021/12/31 11:14:50;;;;;;;32.60;14.77;;;;;;;-2.23;64.19;99027.84;5051978;28;20032;-64
2021/12/31 11:17:15;;;;;;;36.65;16.40;;;;;;;-2.22;63.82;99029.53;5051584;28;20106;-63
2021/12/31 11:19:43;;;;;;;37.70;16.67;;;;;;;-2.21;64.33;99027.78;5051048;28;20036;-64
2021/12/31 11:22:11;;;;;;;37.50;16.48;;;;;;;-2.20;64.71;99035.59;5051878;28;20032;-63
2021/12/31 11:24:38;;;;;;;39.28;17.95;;;;;;;-2.20;63.93;99046.06;5051686;28;20029;-63